Crestview, FL (32539)

1:45 AM CDT on November 01, 2014 (GMT -0500)
Steeplechase | Change Station
CLOSE
Current Station
Personal Weather Station
Location: Crestview, FL
Elevation: 250 ft
Nearby Weather Stations
Active Advisory: Wind Advisory, Freeze Watch

Elev 250 ft 30.73 °N, 86.56 °W | Updated 8 seconds ago

Clear
Clear
51.5 °F
Feels Like 51.5 °F
N
1.0
Wind Variable Wind from North
Gusts 5.0 mph

Today
High -- | Low -- °F
--% Chance of Precip.
Yesterday
High -- | Low -- °F
Precip. -- in
7:01 AM 5:58 PM
Waxing Gibbous, 63% visible
Pressure 30.09 in
Visibility 10.0 miles
Clouds Clear
Dew Point 40 °F
Humidity 66%
Rainfall 0.00 in
Snow Depth Not available.
UV 0 out of 12
Pollen 3.00 out of 12
Air Quality Not available.
Flu Activity Not available.
METAR KCEW 010553Z AUTO 33014G26KT 10SM CLR 12/03 A3010 RMK AO2 PK WND 33031/0530 SLP190 T01170028 10183 20117 402330044 53019

More Conditions Fewer Conditions

Pressure 30.09 in
Visibility 10.0 miles
Clouds Clear
Dew Point 40 °F
Humidity 66%
Rainfall 0.00 in
Snow Depth Not available.
UV 0 out of 12
Pollen 3.00 out of 12
Air Quality Not available.
Flu Activity Not available.
METAR KCEW 010553Z AUTO 33014G26KT 10SM CLR 12/03 A3010 RMK AO2 PK WND 33031/0530 SLP190 T01170028 10183 20117 402330044 53019

More Conditions Fewer Conditions

10-Day Weather Forecast

Almanac

Astronomy

Nov. 01, 2014 Rise Set
Actual Time
Civil Twilight
Nautical Twilight
Astronomical Twilight
Moon
Length of Visible Light
Length of Day
Tomorrow will be .
, % of the Moon is Illuminated

Today's Extremes

State Highs State Lows

Community

WunderPhotos

Upload Photos

1,766,865 photos uploaded!

WunderBlogs® & News

Nearby

Air Quality

  Air Quality AQ Index Pollutant
Not available.

Snow Depth

Station Depth Elevation

Earthquake Activity

City Distance Mag. Time & Date
Minimum magnitude displayed is 2.5.

Coastal Water Temperatures

Place Temperature

Nearby Weather Stations